sensor_id;sensor_type;location;lat;lon;timestamp;P1;durP1;ratioP1;P2;durP2;ratioP2
40827;SDS011;26549;50.918;5.338;2023-04-01T00:00:18;1.67;;;0.55;;
40827;SDS011;26549;50.918;5.338;2023-04-01T00:02:44;3.78;;;0.65;;
40827;SDS011;26549;50.918;5.338;2023-04-01T00:05:11;2.38;;;0.80;;
40827;SDS011;26549;50.918;5.338;2023-04-01T00:07:37;1.48;;;0.47;;
40827;SDS011;26549;50.918;5.338;2023-04-01T00:10:05;1.73;;;0.50;;
40827;SDS011;26549;50.918;5.338;2023-04-01T00:12:33;1.83;;;0.70;;
40827;SDS011;26549;50.918;5.338;2023-04-01T00:15:00;2.13;;;0.60;;
40827;SDS011;26549;50.918;5.338;2023-04-01T00:17:26;1.13;;;0.57;;
40827;SDS011;26549;50.918;5.338;2023-04-01T00:19:54;3.28;;;1.13;;
40827;SDS011;26549;50.918;5.338;2023-04-01T00:22:20;0.47;;;0.30;;
40827;SDS011;26549;50.918;5.338;2023-04-01T00:24:46;1.58;;;0.52;;
40827;SDS011;26549;50.918;5.338;2023-04-01T00:27:12;0.90;;;0.63;;
40827;SDS011;26549;50.918;5.338;2023-04-01T00:29:38;0.85;;;0.50;;
40827;SDS011;26549;50.918;5.338;2023-04-01T00:32:06;1.15;;;0.73;;
40827;SDS011;26549;50.918;5.338;2023-04-01T00:34:32;1.83;;;0.55;;
40827;SDS011;26549;50.918;5.338;2023-04-01T00:36:58;1.90;;;0.73;;
40827;SDS011;26549;50.918;5.338;2023-04-01T00:39:25;1.42;;;0.60;;
40827;SDS011;26549;50.918;5.338;2023-04-01T00:41:54;2.55;;;1.40;;
40827;SDS011;26549;50.918;5.338;2023-04-01T00:44:40;2.83;;;1.10;;
40827;SDS011;26549;50.918;5.338;2023-04-01T00:47:06;2.20;;;1.67;;
40827;SDS011;26549;50.918;5.338;2023-04-01T00:49:33;1.70;;;0.55;;
40827;SDS011;26549;50.918;5.338;2023-04-01T00:52:05;0.95;;;0.47;;
40827;SDS011;26549;50.918;5.338;2023-04-01T00:54:33;2.55;;;1.42;;
40827;SDS011;26549;50.918;5.338;2023-04-01T00:57:15;2.38;;;0.60;;
40827;SDS011;26549;50.918;5.338;2023-04-01T00:59:48;1.73;;;0.80;;
40827;SDS011;26549;50.918;5.338;2023-04-01T01:02:19;3.25;;;0.80;;
40827;SDS011;26549;50.918;5.338;2023-04-01T01:04:45;2.38;;;1.00;;
40827;SDS011;26549;50.918;5.338;2023-04-01T01:10:17;1.45;;;0.80;;
40827;SDS011;26549;50.918;5.338;2023-04-01T01:13:02;1.85;;;0.80;;
40827;SDS011;26549;50.918;5.338;2023-04-01T01:26:58;1.02;;;0.70;;
40827;SDS011;26549;50.918;5.338;2023-04-01T01:32:42;2.40;;;0.73;;
40827;SDS011;26549;50.918;5.338;2023-04-01T01:35:51;2.90;;;1.17;;
40827;SDS011;26549;50.918;5.338;2023-04-01T01:38:21;0.35;;;0.35;;
40827;SDS011;26549;50.918;5.338;2023-04-01T01:40:50;1.42;;;0.60;;
40827;SDS011;26549;50.918;5.338;2023-04-01T01:43:19;4.78;;;0.85;;
40827;SDS011;26549;50.918;5.338;2023-04-01T01:45:50;2.60;;;1.60;;
40827;SDS011;26549;50.918;5.338;2023-04-01T01:48:23;11.68;;;2.47;;
40827;SDS011;26549;50.918;5.338;2023-04-01T01:50:51;2.20;;;0.93;;
40827;SDS011;26549;50.918;5.338;2023-04-01T01:53:17;1.48;;;0.70;;
40827;SDS011;26549;50.918;5.338;2023-04-01T01:55:44;2.28;;;0.55;;
40827;SDS011;26549;50.918;5.338;2023-04-01T01:58:20;3.85;;;0.73;;
40827;SDS011;26549;50.918;5.338;2023-04-01T02:00:55;2.85;;;1.10;;
40827;SDS011;26549;50.918;5.338;2023-04-01T02:03:24;2.05;;;0.60;;
40827;SDS011;26549;50.918;5.338;2023-04-01T02:05:52;1.52;;;0.60;;
40827;SDS011;26549;50.918;5.338;2023-04-01T02:08:22;1.45;;;0.75;;
40827;SDS011;26549;50.918;5.338;2023-04-01T02:11:02;4.63;;;0.60;;
40827;SDS011;26549;50.918;5.338;2023-04-01T02:14:14;1.05;;;0.80;;
40827;SDS011;26549;50.918;5.338;2023-04-01T02:16:46;1.13;;;0.73;;
40827;SDS011;26549;50.918;5.338;2023-04-01T02:19:17;0.70;;;0.70;;
40827;SDS011;26549;50.918;5.338;2023-04-01T02:21:49;1.85;;;0.60;;
40827;SDS011;26549;50.918;5.338;2023-04-01T02:24:18;1.45;;;1.05;;
40827;SDS011;26549;50.918;5.338;2023-04-01T02:26:47;1.30;;;0.73;;
40827;SDS011;26549;50.918;5.338;2023-04-01T02:29:15;0.73;;;0.50;;
40827;SDS011;26549;50.918;5.338;2023-04-01T02:31:44;2.13;;;0.77;;
40827;SDS011;26549;50.918;5.338;2023-04-01T02:34:11;1.05;;;0.60;;
40827;SDS011;26549;50.918;5.338;2023-04-01T02:36:38;4.22;;;0.70;;
40827;SDS011;26549;50.918;5.338;2023-04-01T02:39:04;0.98;;;0.63;;
40827;SDS011;26549;50.918;5.338;2023-04-01T02:41:31;1.70;;;0.70;;
40827;SDS011;26549;50.918;5.338;2023-04-01T02:44:03;0.82;;;0.50;;
40827;SDS011;26549;50.918;5.338;2023-04-01T02:46:29;0.80;;;0.63;;
40827;SDS011;26549;50.918;5.338;2023-04-01T02:48:55;2.10;;;0.55;;
40827;SDS011;26549;50.918;5.338;2023-04-01T02:51:20;1.20;;;0.70;;
40827;SDS011;26549;50.918;5.338;2023-04-01T02:53:46;1.98;;;0.80;;
40827;SDS011;26549;50.918;5.338;2023-04-01T02:56:12;0.68;;;0.68;;
40827;SDS011;26549;50.918;5.338;2023-04-01T02:58:38;0.93;;;0.80;;
40827;SDS011;26549;50.918;5.338;2023-04-01T03:01:03;0.70;;;0.70;;
40827;SDS011;26549;50.918;5.338;2023-04-01T03:03:29;2.78;;;0.75;;
40827;SDS011;26549;50.918;5.338;2023-04-01T03:05:55;2.75;;;0.90;;
40827;SDS011;26549;50.918;5.338;2023-04-01T03:08:21;1.13;;;0.90;;
40827;SDS011;26549;50.918;5.338;2023-04-01T03:10:47;0.82;;;0.50;;
40827;SDS011;26549;50.918;5.338;2023-04-01T03:13:12;1.92;;;0.75;;
40827;SDS011;26549;50.918;5.338;2023-04-01T03:15:38;0.82;;;0.80;;
40827;SDS011;26549;50.918;5.338;2023-04-01T03:18:04;1.55;;;0.68;;
40827;SDS011;26549;50.918;5.338;2023-04-01T03:20:30;1.85;;;0.82;;
40827;SDS011;26549;50.918;5.338;2023-04-01T03:22:55;0.73;;;0.60;;
40827;SDS011;26549;50.918;5.338;2023-04-01T03:25:21;0.88;;;0.73;;
40827;SDS011;26549;50.918;5.338;2023-04-01T03:27:47;1.05;;;0.65;;
40827;SDS011;26549;50.918;5.338;2023-04-01T03:30:13;1.65;;;0.55;;
40827;SDS011;26549;50.918;5.338;2023-04-01T03:32:38;0.50;;;0.50;;
40827;SDS011;26549;50.918;5.338;2023-04-01T03:35:04;0.60;;;0.60;;
40827;SDS011;26549;50.918;5.338;2023-04-01T03:37:30;1.92;;;1.10;;
40827;SDS011;26549;50.918;5.338;2023-04-01T03:39:58;1.00;;;0.90;;
40827;SDS011;26549;50.918;5.338;2023-04-01T03:42:23;1.25;;;1.10;;
40827;SDS011;26549;50.918;5.338;2023-04-01T03:44:49;2.42;;;1.10;;
40827;SDS011;26549;50.918;5.338;2023-04-01T03:47:15;2.67;;;1.17;;
40827;SDS011;26549;50.918;5.338;2023-04-01T03:49:41;2.45;;;0.93;;
40827;SDS011;26549;50.918;5.338;2023-04-01T03:52:08;3.00;;;1.38;;
40827;SDS011;26549;50.918;5.338;2023-04-01T03:54:36;1.75;;;1.10;;
40827;SDS011;26549;50.918;5.338;2023-04-01T03:57:02;2.70;;;1.23;;
40827;SDS011;26549;50.918;5.338;2023-04-01T03:59:28;2.88;;;1.33;;
40827;SDS011;26549;50.918;5.338;2023-04-01T04:01:54;3.35;;;1.52;;
40827;SDS011;26549;50.918;5.338;2023-04-01T04:04:19;2.03;;;1.40;;
40827;SDS011;26549;50.918;5.338;2023-04-01T04:06:46;1.10;;;1.00;;
40827;SDS011;26549;50.918;5.338;2023-04-01T04:09:13;2.60;;;1.35;;
40827;SDS011;26549;50.918;5.338;2023-04-01T04:11:38;5.32;;;1.50;;
40827;SDS011;26549;50.918;5.338;2023-04-01T04:14:05;2.95;;;1.15;;
40827;SDS011;26549;50.918;5.338;2023-04-01T04:16:31;1.25;;;0.95;;
40827;SDS011;26549;50.918;5.338;2023-04-01T04:18:57;3.42;;;1.77;;
40827;SDS011;26549;50.918;5.338;2023-04-01T04:21:22;1.92;;;1.15;;
40827;SDS011;26549;50.918;5.338;2023-04-01T04:23:48;1.95;;;1.17;;
40827;SDS011;26549;50.918;5.338;2023-04-01T04:26:15;4.03;;;1.30;;
40827;SDS011;26549;50.918;5.338;2023-04-01T04:28:41;4.43;;;2.03;;
40827;SDS011;26549;50.918;5.338;2023-04-01T04:31:07;3.10;;;1.48;;
40827;SDS011;26549;50.918;5.338;2023-04-01T04:33:33;3.17;;;1.42;;
40827;SDS011;26549;50.918;5.338;2023-04-01T04:36:00;4.38;;;1.67;;
40827;SDS011;26549;50.918;5.338;2023-04-01T04:38:27;3.35;;;1.40;;
40827;SDS011;26549;50.918;5.338;2023-04-01T04:40:53;3.33;;;1.50;;
40827;SDS011;26549;50.918;5.338;2023-04-01T04:43:19;2.58;;;2.33;;
40827;SDS011;26549;50.918;5.338;2023-04-01T04:45:45;2.92;;;1.52;;
40827;SDS011;26549;50.918;5.338;2023-04-01T04:48:11;2.58;;;1.75;;
40827;SDS011;26549;50.918;5.338;2023-04-01T04:50:43;3.38;;;1.77;;
40827;SDS011;26549;50.918;5.338;2023-04-01T04:53:11;5.10;;;1.98;;
40827;SDS011;26549;50.918;5.338;2023-04-01T04:55:48;3.45;;;2.22;;
40827;SDS011;26549;50.918;5.338;2023-04-01T04:58:15;5.25;;;2.47;;
40827;SDS011;26549;50.918;5.338;2023-04-01T05:00:41;3.60;;;2.05;;
40827;SDS011;26549;50.918;5.338;2023-04-01T05:03:08;4.22;;;2.40;;
40827;SDS011;26549;50.918;5.338;2023-04-01T05:05:34;3.25;;;1.92;;
40827;SDS011;26549;50.918;5.338;2023-04-01T05:08:00;4.53;;;2.50;;
40827;SDS011;26549;50.918;5.338;2023-04-01T05:10:26;5.57;;;2.60;;
40827;SDS011;26549;50.918;5.338;2023-04-01T05:12:52;4.88;;;2.22;;
40827;SDS011;26549;50.918;5.338;2023-04-01T05:15:18;4.60;;;2.80;;
40827;SDS011;26549;50.918;5.338;2023-04-01T05:17:43;5.07;;;2.60;;
40827;SDS011;26549;50.918;5.338;2023-04-01T05:20:11;6.10;;;2.78;;
40827;SDS011;26549;50.918;5.338;2023-04-01T05:22:37;4.97;;;3.55;;
40827;SDS011;26549;50.918;5.338;2023-04-01T05:25:03;5.00;;;2.70;;
40827;SDS011;26549;50.918;5.338;2023-04-01T05:27:29;5.05;;;2.42;;
40827;SDS011;26549;50.918;5.338;2023-04-01T05:29:54;4.10;;;2.40;;
40827;SDS011;26549;50.918;5.338;2023-04-01T05:32:21;3.30;;;2.40;;
40827;SDS011;26549;50.918;5.338;2023-04-01T05:34:50;5.32;;;2.42;;
40827;SDS011;26549;50.918;5.338;2023-04-01T05:37:16;4.65;;;2.80;;
40827;SDS011;26549;50.918;5.338;2023-04-01T05:39:42;4.13;;;2.85;;
40827;SDS011;26549;50.918;5.338;2023-04-01T05:42:08;5.47;;;3.05;;
40827;SDS011;26549;50.918;5.338;2023-04-01T05:44:34;5.65;;;2.50;;
40827;SDS011;26549;50.918;5.338;2023-04-01T05:47:00;8.07;;;2.70;;
40827;SDS011;26549;50.918;5.338;2023-04-01T05:49:26;3.47;;;2.60;;
40827;SDS011;26549;50.918;5.338;2023-04-01T05:51:52;5.03;;;2.72;;
40827;SDS011;26549;50.918;5.338;2023-04-01T05:54:18;8.25;;;2.90;;
40827;SDS011;26549;50.918;5.338;2023-04-01T05:56:44;5.60;;;2.47;;
40827;SDS011;26549;50.918;5.338;2023-04-01T05:59:10;3.40;;;2.90;;
40827;SDS011;26549;50.918;5.338;2023-04-01T06:01:37;3.20;;;2.28;;
40827;SDS011;26549;50.918;5.338;2023-04-01T06:04:03;4.03;;;2.58;;
40827;SDS011;26549;50.918;5.338;2023-04-01T06:06:30;4.40;;;2.78;;
40827;SDS011;26549;50.918;5.338;2023-04-01T06:09:18;3.75;;;2.35;;
40827;SDS011;26549;50.918;5.338;2023-04-01T06:17:09;4.18;;;1.80;;
40827;SDS011;26549;50.918;5.338;2023-04-01T06:37:11;2.00;;;1.70;;
40827;SDS011;26549;50.918;5.338;2023-04-01T06:39:53;1.50;;;1.33;;
40827;SDS011;26549;50.918;5.338;2023-04-01T06:53:39;1.23;;;0.82;;
40827;SDS011;26549;50.918;5.338;2023-04-01T06:56:19;1.17;;;0.90;;
40827;SDS011;26549;50.918;5.338;2023-04-01T06:58:49;0.80;;;0.80;;
40827;SDS011;26549;50.918;5.338;2023-04-01T07:01:26;0.80;;;0.80;;
40827;SDS011;26549;50.918;5.338;2023-04-01T07:04:14;0.80;;;0.55;;
40827;SDS011;26549;50.918;5.338;2023-04-01T07:06:59;0.75;;;0.45;;
40827;SDS011;26549;50.918;5.338;2023-04-01T07:09:32;0.50;;;0.50;;
40827;SDS011;26549;50.918;5.338;2023-04-01T07:12:01;0.75;;;0.50;;
40827;SDS011;26549;50.918;5.338;2023-04-01T07:14:36;0.68;;;0.68;;
40827;SDS011;26549;50.918;5.338;2023-04-01T07:22:52;1.02;;;0.90;;
40827;SDS011;26549;50.918;5.338;2023-04-01T07:25:11;0.70;;;0.70;;
40827;SDS011;26549;50.918;5.338;2023-04-01T07:27:43;0.73;;;0.73;;
40827;SDS011;26549;50.918;5.338;2023-04-01T07:30:14;1.08;;;0.80;;
40827;SDS011;26549;50.918;5.338;2023-04-01T07:32:50;0.80;;;0.75;;
40827;SDS011;26549;50.918;5.338;2023-04-01T07:35:38;1.15;;;1.05;;
40827;SDS011;26549;50.918;5.338;2023-04-01T07:38:31;1.88;;;0.68;;
40827;SDS011;26549;50.918;5.338;2023-04-01T07:46:40;0.73;;;0.60;;
40827;SDS011;26549;50.918;5.338;2023-04-01T07:51:53;0.85;;;0.50;;
40827;SDS011;26549;50.918;5.338;2023-04-01T07:54:37;0.60;;;0.45;;
40827;SDS011;26549;50.918;5.338;2023-04-01T07:59:45;0.65;;;0.60;;
40827;SDS011;26549;50.918;5.338;2023-04-01T08:08:32;2.38;;;0.60;;
40827;SDS011;26549;50.918;5.338;2023-04-01T08:11:39;1.88;;;0.60;;
40827;SDS011;26549;50.918;5.338;2023-04-01T08:17:05;1.33;;;0.60;;
40827;SDS011;26549;50.918;5.338;2023-04-01T08:22:26;0.93;;;0.75;;
40827;SDS011;26549;50.918;5.338;2023-04-01T08:24:59;0.40;;;0.40;;
40827;SDS011;26549;50.918;5.338;2023-04-01T08:30:19;1.58;;;0.60;;
40827;SDS011;26549;50.918;5.338;2023-04-01T08:32:52;3.42;;;1.40;;
40827;SDS011;26549;50.918;5.338;2023-04-01T08:35:42;0.47;;;0.47;;
40827;SDS011;26549;50.918;5.338;2023-04-01T08:38:14;0.60;;;0.43;;
40827;SDS011;26549;50.918;5.338;2023-04-01T08:51:52;0.80;;;0.80;;
40827;SDS011;26549;50.918;5.338;2023-04-01T09:12:01;0.50;;;0.50;;
40827;SDS011;26549;50.918;5.338;2023-04-01T09:14:57;1.40;;;0.82;;
40827;SDS011;26549;50.918;5.338;2023-04-01T09:20:25;1.65;;;0.70;;
40827;SDS011;26549;50.918;5.338;2023-04-01T09:31:32;0.65;;;0.65;;
40827;SDS011;26549;50.918;5.338;2023-04-01T09:34:26;1.10;;;1.00;;
40827;SDS011;26549;50.918;5.338;2023-04-01T09:37:19;1.05;;;0.93;;
40827;SDS011;26549;50.918;5.338;2023-04-01T09:51:33;2.08;;;0.80;;
40827;SDS011;26549;50.918;5.338;2023-04-01T09:54:18;1.25;;;0.70;;
40827;SDS011;26549;50.918;5.338;2023-04-01T09:57:02;0.55;;;0.52;;
40827;SDS011;26549;50.918;5.338;2023-04-01T10:13:56;0.50;;;0.50;;
40827;SDS011;26549;50.918;5.338;2023-04-01T10:16:58;0.50;;;0.50;;
40827;SDS011;26549;50.918;5.338;2023-04-01T10:19:44;0.45;;;0.45;;
40827;SDS011;26549;50.918;5.338;2023-04-01T10:25:29;0.60;;;0.60;;
40827;SDS011;26549;50.918;5.338;2023-04-01T10:36:24;0.80;;;0.80;;
40827;SDS011;26549;50.918;5.338;2023-04-01T10:55:53;1.23;;;1.13;;
40827;SDS011;26549;50.918;5.338;2023-04-01T11:10:00;1.40;;;1.30;;
40827;SDS011;26549;50.918;5.338;2023-04-01T11:18:25;1.83;;;1.70;;
40827;SDS011;26549;50.918;5.338;2023-04-01T11:21:22;2.05;;;1.85;;
40827;SDS011;26549;50.918;5.338;2023-04-01T11:32:52;3.10;;;2.25;;
40827;SDS011;26549;50.918;5.338;2023-04-01T11:41:01;3.08;;;2.50;;
40827;SDS011;26549;50.918;5.338;2023-04-01T11:46:27;6.50;;;2.75;;
40827;SDS011;26549;50.918;5.338;2023-04-01T11:49:18;5.70;;;2.67;;
40827;SDS011;26549;50.918;5.338;2023-04-01T11:52:12;4.55;;;3.17;;
40827;SDS011;26549;50.918;5.338;2023-04-01T11:58:00;4.13;;;2.95;;
40827;SDS011;26549;50.918;5.338;2023-04-01T12:00:52;4.47;;;3.60;;
40827;SDS011;26549;50.918;5.338;2023-04-01T12:03:36;4.30;;;3.65;;
40827;SDS011;26549;50.918;5.338;2023-04-01T12:09:19;2.92;;;2.50;;
40827;SDS011;26549;50.918;5.338;2023-04-01T12:12:11;1.85;;;1.70;;
40827;SDS011;26549;50.918;5.338;2023-04-01T12:21:32;1.13;;;0.85;;
40827;SDS011;26549;50.918;5.338;2023-04-01T12:26:59;0.82;;;0.63;;
40827;SDS011;26549;50.918;5.338;2023-04-01T12:32:31;0.70;;;0.70;;
40827;SDS011;26549;50.918;5.338;2023-04-01T12:38:04;2.40;;;1.00;;
40827;SDS011;26549;50.918;5.338;2023-04-01T12:46:26;1.77;;;1.65;;
40827;SDS011;26549;50.918;5.338;2023-04-01T12:49:23;1.92;;;1.83;;
40827;SDS011;26549;50.918;5.338;2023-04-01T12:52:12;2.30;;;2.10;;
40827;SDS011;26549;50.918;5.338;2023-04-01T12:54:48;2.05;;;1.90;;
40827;SDS011;26549;50.918;5.338;2023-04-01T13:03:32;3.00;;;2.30;;
40827;SDS011;26549;50.918;5.338;2023-04-01T13:06:29;3.53;;;2.97;;
40827;SDS011;26549;50.918;5.338;2023-04-01T13:17:24;1.70;;;1.33;;
40827;SDS011;26549;50.918;5.338;2023-04-01T13:24:59;4.55;;;1.65;;
40827;SDS011;26549;50.918;5.338;2023-04-01T13:27:37;2.78;;;2.03;;
40827;SDS011;26549;50.918;5.338;2023-04-01T13:30:22;3.30;;;1.63;;
40827;SDS011;26549;50.918;5.338;2023-04-01T13:41:16;1.90;;;1.80;;
40827;SDS011;26549;50.918;5.338;2023-04-01T13:43:58;2.85;;;2.03;;
40827;SDS011;26549;50.918;5.338;2023-04-01T13:55:19;5.68;;;2.50;;
40827;SDS011;26549;50.918;5.338;2023-04-01T14:01:05;4.10;;;3.42;;
40827;SDS011;26549;50.918;5.338;2023-04-01T14:21:37;2.65;;;1.20;;
40827;SDS011;26549;50.918;5.338;2023-04-01T14:27:31;1.45;;;1.35;;
40827;SDS011;26549;50.918;5.338;2023-04-01T14:36:04;1.65;;;1.42;;
40827;SDS011;26549;50.918;5.338;2023-04-01T14:41:43;1.23;;;1.13;;
40827;SDS011;26549;50.918;5.338;2023-04-01T14:44:38;1.55;;;1.30;;
40827;SDS011;26549;50.918;5.338;2023-04-01T14:47:15;0.98;;;0.98;;
40827;SDS011;26549;50.918;5.338;2023-04-01T14:50:14;2.15;;;1.48;;
40827;SDS011;26549;50.918;5.338;2023-04-01T14:52:53;5.70;;;1.30;;
40827;SDS011;26549;50.918;5.338;2023-04-01T14:55:33;2.35;;;1.10;;
40827;SDS011;26549;50.918;5.338;2023-04-01T14:58:14;0.98;;;0.90;;
40827;SDS011;26549;50.918;5.338;2023-04-01T15:03:19;1.75;;;0.65;;
40827;SDS011;26549;50.918;5.338;2023-04-01T15:05:50;2.78;;;0.60;;
40827;SDS011;26549;50.918;5.338;2023-04-01T15:16:34;1.00;;;0.90;;
40827;SDS011;26549;50.918;5.338;2023-04-01T15:19:24;0.90;;;0.90;;
40827;SDS011;26549;50.918;5.338;2023-04-01T15:24:56;1.08;;;0.90;;
40827;SDS011;26549;50.918;5.338;2023-04-01T15:30:32;0.95;;;0.95;;
40827;SDS011;26549;50.918;5.338;2023-04-01T15:41:43;1.15;;;1.08;;
40827;SDS011;26549;50.918;5.338;2023-04-01T15:46:59;1.45;;;1.35;;
40827;SDS011;26549;50.918;5.338;2023-04-01T15:49:43;1.02;;;1.02;;
40827;SDS011;26549;50.918;5.338;2023-04-01T15:58:01;1.42;;;1.10;;
40827;SDS011;26549;50.918;5.338;2023-04-01T16:06:48;0.57;;;0.57;;
40827;SDS011;26549;50.918;5.338;2023-04-01T16:09:39;0.70;;;0.70;;
40827;SDS011;26549;50.918;5.338;2023-04-01T16:20:22;3.50;;;0.80;;
40827;SDS011;26549;50.918;5.338;2023-04-01T16:23:02;1.50;;;1.40;;
40827;SDS011;26549;50.918;5.338;2023-04-01T16:25:41;1.55;;;1.33;;
40827;SDS011;26549;50.918;5.338;2023-04-01T16:28:27;1.45;;;1.35;;
40827;SDS011;26549;50.918;5.338;2023-04-01T16:34:15;1.40;;;1.25;;
40827;SDS011;26549;50.918;5.338;2023-04-01T16:36:55;0.88;;;0.88;;
40827;SDS011;26549;50.918;5.338;2023-04-01T16:39:46;1.02;;;0.90;;
40827;SDS011;26549;50.918;5.338;2023-04-01T16:47:41;1.20;;;0.95;;
40827;SDS011;26549;50.918;5.338;2023-04-01T16:50:27;1.13;;;1.02;;
40827;SDS011;26549;50.918;5.338;2023-04-01T16:53:16;1.58;;;1.27;;
40827;SDS011;26549;50.918;5.338;2023-04-01T16:55:49;1.45;;;1.35;;
40827;SDS011;26549;50.918;5.338;2023-04-01T16:58:18;1.83;;;1.73;;
40827;SDS011;26549;50.918;5.338;2023-04-01T17:01:13;2.00;;;1.83;;
40827;SDS011;26549;50.918;5.338;2023-04-01T17:03:40;1.85;;;1.75;;
40827;SDS011;26549;50.918;5.338;2023-04-01T17:20:13;3.88;;;3.22;;
40827;SDS011;26549;50.918;5.338;2023-04-01T17:23:13;3.67;;;2.70;;
40827;SDS011;26549;50.918;5.338;2023-04-01T17:25:56;4.00;;;3.58;;
40827;SDS011;26549;50.918;5.338;2023-04-01T17:28:52;3.97;;;3.15;;
40827;SDS011;26549;50.918;5.338;2023-04-01T17:42:40;4.25;;;2.67;;
40827;SDS011;26549;50.918;5.338;2023-04-01T17:48:01;5.00;;;2.45;;
40827;SDS011;26549;50.918;5.338;2023-04-01T17:50:50;2.58;;;2.38;;
40827;SDS011;26549;50.918;5.338;2023-04-01T17:56:07;2.47;;;2.28;;
40827;SDS011;26549;50.918;5.338;2023-04-01T17:59:37;2.00;;;1.90;;
40827;SDS011;26549;50.918;5.338;2023-04-01T18:04:50;2.70;;;1.98;;
40827;SDS011;26549;50.918;5.338;2023-04-01T18:16:26;4.43;;;2.08;;
40827;SDS011;26549;50.918;5.338;2023-04-01T18:24:42;3.17;;;1.80;;
40827;SDS011;26549;50.918;5.338;2023-04-01T18:27:23;1.83;;;1.70;;
40827;SDS011;26549;50.918;5.338;2023-04-01T18:30:17;1.80;;;1.67;;
40827;SDS011;26549;50.918;5.338;2023-04-01T18:36:09;2.60;;;2.03;;
40827;SDS011;26549;50.918;5.338;2023-04-01T18:38:54;3.60;;;1.63;;
40827;SDS011;26549;50.918;5.338;2023-04-01T18:41:30;4.40;;;2.03;;
40827;SDS011;26549;50.918;5.338;2023-04-01T18:44:10;2.65;;;1.95;;
40827;SDS011;26549;50.918;5.338;2023-04-01T18:46:55;1.92;;;1.73;;
40827;SDS011;26549;50.918;5.338;2023-04-01T18:52:37;2.28;;;2.05;;
40827;SDS011;26549;50.918;5.338;2023-04-01T18:57:46;5.00;;;2.90;;
40827;SDS011;26549;50.918;5.338;2023-04-01T19:00:22;2.72;;;2.33;;
40827;SDS011;26549;50.918;5.338;2023-04-01T19:05:48;4.22;;;2.38;;
40827;SDS011;26549;50.918;5.338;2023-04-01T19:11:03;3.13;;;2.83;;
40827;SDS011;26549;50.918;5.338;2023-04-01T19:14:03;3.05;;;2.75;;
40827;SDS011;26549;50.918;5.338;2023-04-01T19:22:09;4.35;;;3.00;;
40827;SDS011;26549;50.918;5.338;2023-04-01T19:27:41;3.72;;;3.08;;
40827;SDS011;26549;50.918;5.338;2023-04-01T19:41:47;4.32;;;3.92;;
40827;SDS011;26549;50.918;5.338;2023-04-01T19:44:30;4.22;;;3.83;;
40827;SDS011;26549;50.918;5.338;2023-04-01T19:47:45;6.13;;;4.40;;
40827;SDS011;26549;50.918;5.338;2023-04-01T19:50:04;6.45;;;4.43;;
40827;SDS011;26549;50.918;5.338;2023-04-01T19:52:50;9.00;;;5.00;;
40827;SDS011;26549;50.918;5.338;2023-04-01T20:00:44;6.10;;;5.50;;
40827;SDS011;26549;50.918;5.338;2023-04-01T20:06:04;5.30;;;4.80;;
40827;SDS011;26549;50.918;5.338;2023-04-01T20:13:33;5.10;;;4.38;;
40827;SDS011;26549;50.918;5.338;2023-04-01T20:16:13;5.30;;;4.15;;
40827;SDS011;26549;50.918;5.338;2023-04-01T20:18:56;5.45;;;4.40;;
40827;SDS011;26549;50.918;5.338;2023-04-01T20:21:35;6.72;;;4.82;;
40827;SDS011;26549;50.918;5.338;2023-04-01T20:24:15;6.80;;;5.85;;
40827;SDS011;26549;50.918;5.338;2023-04-01T20:26:53;7.95;;;4.78;;
40827;SDS011;26549;50.918;5.338;2023-04-01T20:42:33;5.85;;;5.25;;
40827;SDS011;26549;50.918;5.338;2023-04-01T20:53:43;7.55;;;6.20;;
40827;SDS011;26549;50.918;5.338;2023-04-01T21:02:10;6.38;;;5.38;;
40827;SDS011;26549;50.918;5.338;2023-04-01T21:10:43;5.72;;;4.45;;
40827;SDS011;26549;50.918;5.338;2023-04-01T21:13:49;5.67;;;4.73;;
40827;SDS011;26549;50.918;5.338;2023-04-01T21:19:25;7.88;;;5.45;;
40827;SDS011;26549;50.918;5.338;2023-04-01T21:22:24;5.28;;;4.30;;
40827;SDS011;26549;50.918;5.338;2023-04-01T21:25:20;7.30;;;4.47;;
40827;SDS011;26549;50.918;5.338;2023-04-01T21:30:47;7.22;;;5.38;;
40827;SDS011;26549;50.918;5.338;2023-04-01T21:42:05;7.95;;;5.82;;
40827;SDS011;26549;50.918;5.338;2023-04-01T21:56:08;6.07;;;5.20;;
40827;SDS011;26549;50.918;5.338;2023-04-01T21:59:12;7.50;;;5.80;;
40827;SDS011;26549;50.918;5.338;2023-04-01T22:07:24;8.23;;;6.05;;
40827;SDS011;26549;50.918;5.338;2023-04-01T22:15:08;8.18;;;6.85;;
40827;SDS011;26549;50.918;5.338;2023-04-01T22:18:04;10.75;;;6.93;;
40827;SDS011;26549;50.918;5.338;2023-04-01T22:28:38;7.07;;;5.30;;
40827;SDS011;26549;50.918;5.338;2023-04-01T22:31:28;7.07;;;5.38;;
40827;SDS011;26549;50.918;5.338;2023-04-01T22:37:03;5.40;;;4.72;;
40827;SDS011;26549;50.918;5.338;2023-04-01T22:42:24;6.47;;;5.13;;
40827;SDS011;26549;50.918;5.338;2023-04-01T22:47:55;6.10;;;5.10;;
40827;SDS011;26549;50.918;5.338;2023-04-01T22:50:40;6.10;;;5.03;;
40827;SDS011;26549;50.918;5.338;2023-04-01T22:53:37;5.97;;;4.78;;
40827;SDS011;26549;50.918;5.338;2023-04-01T22:56:36;6.78;;;5.28;;
40827;SDS011;26549;50.918;5.338;2023-04-01T22:59:16;7.65;;;5.93;;
40827;SDS011;26549;50.918;5.338;2023-04-01T23:02:03;8.60;;;6.05;;
40827;SDS011;26549;50.918;5.338;2023-04-01T23:04:40;6.82;;;5.43;;
40827;SDS011;26549;50.918;5.338;2023-04-01T23:10:22;6.72;;;5.97;;
40827;SDS011;26549;50.918;5.338;2023-04-01T23:12:53;7.25;;;6.15;;
40827;SDS011;26549;50.918;5.338;2023-04-01T23:15:23;7.32;;;6.07;;
40827;SDS011;26549;50.918;5.338;2023-04-01T23:17:57;9.32;;;7.45;;
40827;SDS011;26549;50.918;5.338;2023-04-01T23:26:03;11.10;;;8.98;;
40827;SDS011;26549;50.918;5.338;2023-04-01T23:28:53;8.35;;;7.30;;
40827;SDS011;26549;50.918;5.338;2023-04-01T23:36:47;7.13;;;5.80;;
40827;SDS011;26549;50.918;5.338;2023-04-01T23:41:47;7.85;;;6.85;;
40827;SDS011;26549;50.918;5.338;2023-04-01T23:44:14;6.68;;;5.97;;
40827;SDS011;26549;50.918;5.338;2023-04-01T23:46:41;7.57;;;5.75;;
40827;SDS011;26549;50.918;5.338;2023-04-01T23:49:12;8.73;;;6.97;;
40827;SDS011;26549;50.918;5.338;2023-04-01T23:51:58;7.97;;;6.07;;
40827;SDS011;26549;50.918;5.338;2023-04-01T23:54:33;7.63;;;6.05;;
40827;SDS011;26549;50.918;5.338;2023-04-01T23:57:11;8.15;;;6.20;;
40827;SDS011;26549;50.918;5.338;2023-04-01T23:59:39;7.97;;;5.60;;
